Pendaries, New Mexico
Current Conditions -  °F | °C
As of 5:53 AM on Saturday 22 Nov 2014 (Local Time) from KLVS Reporting Station
Clear Clear  
Wind Chill: 27°   Ceiling: Unl
Heat Index: 32°   Visibility: 10mi
Dew Point: 15°   Wind: 5mph
Humidity: 50%   Direction: 360°N
Pressure: 30.02"   Gusts: NA
Location:  35.8214°N, 105.333°W
Report Text: KLVS 221253Z AUTO 36004KT 10SM CLR 00/M09 A3002 RMK AO2 SLP142 T00001094
Loading
Personal Weather Stations






























Interactive Weather Map New forecast layout! Learn more

10-Day Weather Forecast

Advertisements
Track Severe Weather on mobile